sensor_id;sensor_type;location;lat;lon;timestamp;pressure;altitude;pressure_sealevel;temperature;humidity
77897;BME280;67092;64.282;21.056;2023-04-06T00:01:59;102769.92;;;20.85;20.31
77897;BME280;67092;64.282;21.056;2023-04-06T00:04:25;102766.85;;;21.05;20.38
77897;BME280;67092;64.282;21.056;2023-04-06T00:06:50;102769.88;;;21.11;20.31
77897;BME280;67092;64.282;21.056;2023-04-06T00:09:16;102772.44;;;21.09;20.53
77897;BME280;67092;64.282;21.056;2023-04-06T00:11:42;102769.69;;;21.08;20.35
77897;BME280;67092;64.282;21.056;2023-04-06T00:14:07;102765.34;;;20.73;20.56
77897;BME280;67092;64.282;21.056;2023-04-06T00:16:33;102763.20;;;20.57;20.46
77897;BME280;67092;64.282;21.056;2023-04-06T00:18:59;102764.42;;;21.06;20.07
77897;BME280;67092;64.282;21.056;2023-04-06T00:21:24;102765.35;;;20.85;20.45
77897;BME280;67092;64.282;21.056;2023-04-06T00:23:50;102766.51;;;20.64;20.39
77897;BME280;67092;64.282;21.056;2023-04-06T00:26:16;102765.04;;;20.51;20.44
77897;BME280;67092;64.282;21.056;2023-04-06T00:28:42;102766.76;;;20.95;20.45
77897;BME280;67092;64.282;21.056;2023-04-06T00:31:07;102767.23;;;20.86;20.51
77897;BME280;67092;64.282;21.056;2023-04-06T00:33:33;102766.46;;;20.59;20.49
77897;BME280;67092;64.282;21.056;2023-04-06T00:35:58;102766.67;;;20.87;20.56
77897;BME280;67092;64.282;21.056;2023-04-06T00:38:24;102764.98;;;20.81;20.57
77897;BME280;67092;64.282;21.056;2023-04-06T00:40:50;102769.59;;;20.08;20.78
77897;BME280;67092;64.282;21.056;2023-04-06T00:43:15;102764.79;;;20.67;20.57
77897;BME280;67092;64.282;21.056;2023-04-06T00:45:42;102758.50;;;20.60;20.50
77897;BME280;67092;64.282;21.056;2023-04-06T00:48:07;102755.76;;;20.55;20.56
77897;BME280;67092;64.282;21.056;2023-04-06T00:50:32;102753.88;;;20.54;20.48
77897;BME280;67092;64.282;21.056;2023-04-06T00:52:58;102751.18;;;20.50;20.51
77897;BME280;67092;64.282;21.056;2023-04-06T00:55:23;102753.17;;;20.78;20.38
77897;BME280;67092;64.282;21.056;2023-04-06T00:57:49;102750.91;;;20.61;20.38
77897;BME280;67092;64.282;21.056;2023-04-06T01:00:16;102748.21;;;20.29;20.52
77897;BME280;67092;64.282;21.056;2023-04-06T01:02:40;102751.24;;;20.32;20.73
77897;BME280;67092;64.282;21.056;2023-04-06T01:05:07;102748.49;;;20.24;20.53
77897;BME280;67092;64.282;21.056;2023-04-06T01:07:32;102745.13;;;20.61;20.38
77897;BME280;67092;64.282;21.056;2023-04-06T01:09:58;102743.09;;;20.85;20.15
77897;BME280;67092;64.282;21.056;2023-04-06T01:12:23;102744.58;;;20.72;20.27
77897;BME280;67092;64.282;21.056;2023-04-06T01:14:49;102741.42;;;20.27;20.36
77897;BME280;67092;64.282;21.056;2023-04-06T01:17:14;102740.35;;;20.80;20.33
77897;BME280;67092;64.282;21.056;2023-04-06T01:19:40;102742.20;;;20.57;20.25
77897;BME280;67092;64.282;21.056;2023-04-06T01:22:06;102740.51;;;20.34;20.45
77897;BME280;67092;64.282;21.056;2023-04-06T01:24:31;102741.27;;;20.56;20.23
77897;BME280;67092;64.282;21.056;2023-04-06T01:26:57;102739.17;;;20.52;20.33
77897;BME280;67092;64.282;21.056;2023-04-06T01:29:23;102740.51;;;20.35;20.40
77897;BME280;67092;64.282;21.056;2023-04-06T01:31:48;102738.53;;;20.44;20.31
77897;BME280;67092;64.282;21.056;2023-04-06T01:34:14;102738.79;;;20.53;20.23
77897;BME280;67092;64.282;21.056;2023-04-06T01:36:39;102739.64;;;20.46;20.25
77897;BME280;67092;64.282;21.056;2023-04-06T01:39:05;102737.00;;;20.47;20.28
77897;BME280;67092;64.282;21.056;2023-04-06T01:41:30;102735.75;;;20.70;20.28
77897;BME280;67092;64.282;21.056;2023-04-06T01:43:56;102731.79;;;20.33;20.28
77897;BME280;67092;64.282;21.056;2023-04-06T01:46:22;102734.42;;;20.69;20.27
77897;BME280;67092;64.282;21.056;2023-04-06T01:48:47;102737.15;;;20.44;20.48
77897;BME280;67092;64.282;21.056;2023-04-06T01:51:13;102735.30;;;20.65;20.38
77897;BME280;67092;64.282;21.056;2023-04-06T01:53:39;102732.10;;;20.56;20.41
77897;BME280;67092;64.282;21.056;2023-04-06T01:56:05;102736.83;;;20.43;20.31
77897;BME280;67092;64.282;21.056;2023-04-06T01:58:30;102737.76;;;20.60;20.22
77897;BME280;67092;64.282;21.056;2023-04-06T02:00:56;102737.76;;;20.69;20.25
77897;BME280;67092;64.282;21.056;2023-04-06T02:03:21;102740.21;;;20.67;20.28
77897;BME280;67092;64.282;21.056;2023-04-06T02:05:47;102745.22;;;20.35;20.51
77897;BME280;67092;64.282;21.056;2023-04-06T02:08:12;102742.08;;;20.58;20.39
77897;BME280;67092;64.282;21.056;2023-04-06T02:10:38;102739.95;;;20.37;20.31
77897;BME280;67092;64.282;21.056;2023-04-06T02:13:03;102738.76;;;20.47;20.46
77897;BME280;67092;64.282;21.056;2023-04-06T02:15:29;102742.09;;;20.09;20.44
77897;BME280;67092;64.282;21.056;2023-04-06T02:17:55;102747.37;;;20.46;20.42
77897;BME280;67092;64.282;21.056;2023-04-06T02:20:20;102748.60;;;20.39;20.37
77897;BME280;67092;64.282;21.056;2023-04-06T02:22:46;102746.27;;;20.64;20.05
77897;BME280;67092;64.282;21.056;2023-04-06T02:25:12;102748.39;;;20.20;20.48
77897;BME280;67092;64.282;21.056;2023-04-06T02:27:37;102747.77;;;20.01;20.41
77897;BME280;67092;64.282;21.056;2023-04-06T02:30:03;102742.86;;;20.19;20.21
77897;BME280;67092;64.282;21.056;2023-04-06T02:32:29;102740.88;;;20.69;20.05
77897;BME280;67092;64.282;21.056;2023-04-06T02:34:55;102744.20;;;20.34;20.16
77897;BME280;67092;64.282;21.056;2023-04-06T02:37:20;102744.99;;;20.35;20.24
77897;BME280;67092;64.282;21.056;2023-04-06T02:39:46;102744.70;;;20.47;20.28
77897;BME280;67092;64.282;21.056;2023-04-06T02:42:11;102743.59;;;20.26;20.15
77897;BME280;67092;64.282;21.056;2023-04-06T02:44:37;102747.32;;;20.33;20.21
77897;BME280;67092;64.282;21.056;2023-04-06T02:47:02;102749.17;;;20.34;20.15
77897;BME280;67092;64.282;21.056;2023-04-06T02:49:28;102748.85;;;20.07;20.43
77897;BME280;67092;64.282;21.056;2023-04-06T02:51:54;102750.94;;;20.06;20.26
77897;BME280;67092;64.282;21.056;2023-04-06T02:54:19;102753.63;;;20.10;20.49
77897;BME280;67092;64.282;21.056;2023-04-06T02:56:45;102754.51;;;20.21;20.22
77897;BME280;67092;64.282;21.056;2023-04-06T02:59:11;102749.44;;;20.21;20.38
77897;BME280;67092;64.282;21.056;2023-04-06T03:01:36;102739.74;;;20.33;20.09
77897;BME280;67092;64.282;21.056;2023-04-06T03:04:02;102737.94;;;20.31;20.11
77897;BME280;67092;64.282;21.056;2023-04-06T03:06:27;102735.02;;;20.63;20.04
77897;BME280;67092;64.282;21.056;2023-04-06T03:08:53;102735.82;;;20.10;20.22
77897;BME280;67092;64.282;21.056;2023-04-06T03:11:19;102733.34;;;20.31;20.17
77897;BME280;67092;64.282;21.056;2023-04-06T03:13:45;102733.80;;;20.46;20.15
77897;BME280;67092;64.282;21.056;2023-04-06T03:16:10;102734.69;;;20.71;19.93
77897;BME280;67092;64.282;21.056;2023-04-06T03:18:36;102731.33;;;20.54;20.01
77897;BME280;67092;64.282;21.056;2023-04-06T03:21:01;102732.06;;;20.55;20.07
77897;BME280;67092;64.282;21.056;2023-04-06T03:23:27;102730.78;;;20.43;20.16
77897;BME280;67092;64.282;21.056;2023-04-06T03:25:53;102729.59;;;20.35;20.15
77897;BME280;67092;64.282;21.056;2023-04-06T03:28:18;102727.90;;;20.15;20.15
77897;BME280;67092;64.282;21.056;2023-04-06T03:30:44;102726.99;;;20.43;20.05
77897;BME280;67092;64.282;21.056;2023-04-06T03:33:10;102728.93;;;20.42;20.07
77897;BME280;67092;64.282;21.056;2023-04-06T03:35:35;102726.51;;;20.46;20.06
77897;BME280;67092;64.282;21.056;2023-04-06T03:38:01;102726.47;;;20.30;19.97
77897;BME280;67092;64.282;21.056;2023-04-06T03:40:26;102724.51;;;20.18;20.07
77897;BME280;67092;64.282;21.056;2023-04-06T03:42:52;102726.34;;;20.58;19.99
77897;BME280;67092;64.282;21.056;2023-04-06T03:45:18;102729.24;;;20.32;20.19
77897;BME280;67092;64.282;21.056;2023-04-06T03:47:43;102725.47;;;20.55;19.90
77897;BME280;67092;64.282;21.056;2023-04-06T03:50:10;102718.83;;;20.25;19.94
77897;BME280;67092;64.282;21.056;2023-04-06T03:52:35;102724.61;;;20.28;20.12
77897;BME280;67092;64.282;21.056;2023-04-06T03:55:00;102721.67;;;20.41;20.08
77897;BME280;67092;64.282;21.056;2023-04-06T03:57:26;102713.88;;;20.47;20.03
77897;BME280;67092;64.282;21.056;2023-04-06T03:59:52;102713.63;;;20.20;19.97
77897;BME280;67092;64.282;21.056;2023-04-06T04:02:17;102718.35;;;20.52;19.93
77897;BME280;67092;64.282;21.056;2023-04-06T04:04:43;102721.04;;;20.72;19.77
77897;BME280;67092;64.282;21.056;2023-04-06T04:07:08;102720.12;;;20.42;20.09
77897;BME280;67092;64.282;21.056;2023-04-06T04:09:34;102721.80;;;20.66;19.89
77897;BME280;67092;64.282;21.056;2023-04-06T04:12:00;102727.06;;;20.56;19.96
77897;BME280;67092;64.282;21.056;2023-04-06T04:14:25;102732.00;;;20.32;19.88
77897;BME280;67092;64.282;21.056;2023-04-06T04:16:51;102740.92;;;20.33;20.15
77897;BME280;67092;64.282;21.056;2023-04-06T04:19:17;102741.12;;;20.53;19.92
77897;BME280;67092;64.282;21.056;2023-04-06T04:21:43;102738.54;;;20.76;19.81
77897;BME280;67092;64.282;21.056;2023-04-06T04:24:08;102741.21;;;20.81;19.81
77897;BME280;67092;64.282;21.056;2023-04-06T04:26:33;102748.65;;;19.99;20.19
77897;BME280;67092;64.282;21.056;2023-04-06T04:28:59;102757.11;;;20.29;20.00
77897;BME280;67092;64.282;21.056;2023-04-06T04:31:25;102761.19;;;20.70;19.81
77897;BME280;67092;64.282;21.056;2023-04-06T04:33:51;102759.65;;;20.56;19.76
77897;BME280;67092;64.282;21.056;2023-04-06T04:36:16;102747.79;;;20.40;19.82
77897;BME280;67092;64.282;21.056;2023-04-06T04:38:42;102745.17;;;20.68;19.68
77897;BME280;67092;64.282;21.056;2023-04-06T04:41:07;102752.23;;;20.45;19.87
77897;BME280;67092;64.282;21.056;2023-04-06T04:43:33;102749.45;;;20.29;19.91
77897;BME280;67092;64.282;21.056;2023-04-06T04:45:59;102738.91;;;20.48;20.02
77897;BME280;67092;64.282;21.056;2023-04-06T04:48:24;102743.05;;;20.52;20.09
77897;BME280;67092;64.282;21.056;2023-04-06T04:50:50;102753.55;;;20.31;19.96
77897;BME280;67092;64.282;21.056;2023-04-06T04:53:16;102771.46;;;20.06;20.14
77897;BME280;67092;64.282;21.056;2023-04-06T04:55:41;102781.02;;;20.20;20.01
77897;BME280;67092;64.282;21.056;2023-04-06T04:58:07;102782.66;;;20.40;20.06
77897;BME280;67092;64.282;21.056;2023-04-06T05:00:33;102788.22;;;19.95;20.04
77897;BME280;67092;64.282;21.056;2023-04-06T05:02:58;102784.45;;;20.05;20.18
77897;BME280;67092;64.282;21.056;2023-04-06T05:05:24;102776.50;;;20.01;20.27
77897;BME280;67092;64.282;21.056;2023-04-06T05:07:49;102772.46;;;20.08;20.34
77897;BME280;67092;64.282;21.056;2023-04-06T05:10:15;102786.44;;;20.10;20.19
77897;BME280;67092;64.282;21.056;2023-04-06T05:12:41;102789.64;;;20.27;20.34
77897;BME280;67092;64.282;21.056;2023-04-06T05:15:07;102783.74;;;20.45;20.13
77897;BME280;67092;64.282;21.056;2023-04-06T05:17:32;102788.37;;;20.14;20.07
77897;BME280;67092;64.282;21.056;2023-04-06T05:19:58;102791.34;;;20.40;20.00
77897;BME280;67092;64.282;21.056;2023-04-06T05:22:23;102784.55;;;20.15;20.11
77897;BME280;67092;64.282;21.056;2023-04-06T05:24:49;102785.25;;;20.27;19.84
77897;BME280;67092;64.282;21.056;2023-04-06T05:27:15;102779.39;;;20.28;19.95
77897;BME280;67092;64.282;21.056;2023-04-06T05:29:40;102780.33;;;20.69;19.72
77897;BME280;67092;64.282;21.056;2023-04-06T05:32:06;102779.03;;;20.32;19.86
77897;BME280;67092;64.282;21.056;2023-04-06T05:34:31;102779.36;;;20.41;19.88
77897;BME280;67092;64.282;21.056;2023-04-06T05:36:57;102778.02;;;20.42;19.81
77897;BME280;67092;64.282;21.056;2023-04-06T05:39:23;102777.06;;;19.74;20.08
77897;BME280;67092;64.282;21.056;2023-04-06T05:41:49;102767.40;;;19.88;19.98
77897;BME280;67092;64.282;21.056;2023-04-06T05:44:14;102765.00;;;20.09;19.89
77897;BME280;67092;64.282;21.056;2023-04-06T05:46:39;102768.64;;;19.70;20.07
77897;BME280;67092;64.282;21.056;2023-04-06T05:49:05;102768.77;;;19.86;20.07
77897;BME280;67092;64.282;21.056;2023-04-06T05:51:31;102767.43;;;20.04;19.85
77897;BME280;67092;64.282;21.056;2023-04-06T05:53:56;102769.84;;;20.00;19.89
77897;BME280;67092;64.282;21.056;2023-04-06T05:56:22;102777.03;;;19.84;19.82
77897;BME280;67092;64.282;21.056;2023-04-06T05:58:47;102786.05;;;19.83;19.82
77897;BME280;67092;64.282;21.056;2023-04-06T06:01:13;102780.00;;;20.17;19.74
77897;BME280;67092;64.282;21.056;2023-04-06T06:03:39;102781.71;;;20.36;19.57
77897;BME280;67092;64.282;21.056;2023-04-06T06:06:05;102780.61;;;19.90;19.72
77897;BME280;67092;64.282;21.056;2023-04-06T06:08:30;102786.08;;;19.97;19.83
77897;BME280;67092;64.282;21.056;2023-04-06T06:10:56;102784.10;;;20.10;19.70
77897;BME280;67092;64.282;21.056;2023-04-06T06:13:21;102783.50;;;20.03;19.71
77897;BME280;67092;64.282;21.056;2023-04-06T06:15:47;102782.23;;;19.92;19.76
77897;BME280;67092;64.282;21.056;2023-04-06T06:18:13;102780.92;;;20.08;19.67
77897;BME280;67092;64.282;21.056;2023-04-06T06:20:38;102778.21;;;20.20;19.57
77897;BME280;67092;64.282;21.056;2023-04-06T06:23:04;102782.70;;;20.00;19.66
77897;BME280;67092;64.282;21.056;2023-04-06T06:25:29;102775.15;;;20.07;19.63
77897;BME280;67092;64.282;21.056;2023-04-06T06:27:55;102775.57;;;19.98;19.67
77897;BME280;67092;64.282;21.056;2023-04-06T06:30:21;102776.52;;;19.78;19.80
77897;BME280;67092;64.282;21.056;2023-04-06T06:32:46;102774.89;;;19.92;19.72
77897;BME280;67092;64.282;21.056;2023-04-06T06:35:12;102779.72;;;19.91;19.69
77897;BME280;67092;64.282;21.056;2023-04-06T06:37:38;102780.82;;;20.00;19.61
77897;BME280;67092;64.282;21.056;2023-04-06T06:40:04;102778.53;;;20.20;19.43
77897;BME280;67092;64.282;21.056;2023-04-06T06:42:29;102778.84;;;20.05;19.53
77897;BME280;67092;64.282;21.056;2023-04-06T06:44:55;102781.96;;;19.96;19.60
77897;BME280;67092;64.282;21.056;2023-04-06T06:47:20;102783.99;;;20.21;19.60
77897;BME280;67092;64.282;21.056;2023-04-06T06:49:46;102786.09;;;19.77;19.72
77897;BME280;67092;64.282;21.056;2023-04-06T06:52:11;102782.46;;;19.68;19.76
77897;BME280;67092;64.282;21.056;2023-04-06T06:54:37;102782.47;;;20.28;19.68
77897;BME280;67092;64.282;21.056;2023-04-06T06:57:03;102782.21;;;19.82;19.65
77897;BME280;67092;64.282;21.056;2023-04-06T06:59:28;102784.87;;;20.07;19.64
77897;BME280;67092;64.282;21.056;2023-04-06T07:01:54;102780.85;;;19.98;19.47
77897;BME280;67092;64.282;21.056;2023-04-06T07:04:20;102778.63;;;19.98;19.47
77897;BME280;67092;64.282;21.056;2023-04-06T07:06:45;102778.01;;;19.88;19.51
77897;BME280;67092;64.282;21.056;2023-04-06T07:09:11;102776.63;;;19.79;19.60
77897;BME280;67092;64.282;21.056;2023-04-06T07:11:37;102770.33;;;19.71;19.66
77897;BME280;67092;64.282;21.056;2023-04-06T07:14:02;102768.40;;;19.86;19.54
77897;BME280;67092;64.282;21.056;2023-04-06T07:16:28;102771.07;;;19.75;19.62
77897;BME280;67092;64.282;21.056;2023-04-06T07:18:54;102764.05;;;20.06;19.35
77897;BME280;67092;64.282;21.056;2023-04-06T07:21:20;102764.81;;;20.33;19.15
77897;BME280;67092;64.282;21.056;2023-04-06T07:23:45;102764.74;;;19.47;19.60
77897;BME280;67092;64.282;21.056;2023-04-06T07:26:11;102763.46;;;19.47;19.58
77897;BME280;67092;64.282;21.056;2023-04-06T07:28:36;102759.25;;;19.51;19.72
77897;BME280;67092;64.282;21.056;2023-04-06T07:31:02;102757.96;;;19.57;19.68
77897;BME280;67092;64.282;21.056;2023-04-06T07:33:27;102758.90;;;19.85;19.44
77897;BME280;67092;64.282;21.056;2023-04-06T07:35:53;102762.23;;;19.65;19.78
77897;BME280;67092;64.282;21.056;2023-04-06T07:38:19;102761.55;;;19.39;19.79
77897;BME280;67092;64.282;21.056;2023-04-06T07:40:44;102762.35;;;19.74;19.52
77897;BME280;67092;64.282;21.056;2023-04-06T07:43:10;102763.53;;;19.45;19.74
77897;BME280;67092;64.282;21.056;2023-04-06T07:45:36;102762.55;;;19.67;19.57
77897;BME280;67092;64.282;21.056;2023-04-06T07:48:01;102768.80;;;19.46;19.71
77897;BME280;67092;64.282;21.056;2023-04-06T07:50:27;102769.45;;;20.04;19.63
77897;BME280;67092;64.282;21.056;2023-04-06T07:52:53;102771.86;;;19.78;19.64
77897;BME280;67092;64.282;21.056;2023-04-06T07:55:18;102774.19;;;19.29;19.83
77897;BME280;67092;64.282;21.056;2023-04-06T07:57:44;102773.84;;;19.90;19.54
77897;BME280;67092;64.282;21.056;2023-04-06T08:00:10;102774.11;;;19.41;19.73
77897;BME280;67092;64.282;21.056;2023-04-06T08:02:35;102771.87;;;19.36;19.76
77897;BME280;67092;64.282;21.056;2023-04-06T08:05:01;102775.15;;;19.67;19.51
77897;BME280;67092;64.282;21.056;2023-04-06T08:07:26;102780.72;;;19.74;19.65
77897;BME280;67092;64.282;21.056;2023-04-06T08:09:52;102781.40;;;19.62;19.53
77897;BME280;67092;64.282;21.056;2023-04-06T08:12:18;102781.69;;;19.98;19.62
77897;BME280;67092;64.282;21.056;2023-04-06T08:14:43;102783.76;;;19.82;19.56
77897;BME280;67092;64.282;21.056;2023-04-06T08:17:09;102784.89;;;19.64;19.50
77897;BME280;67092;64.282;21.056;2023-04-06T08:19:35;102785.78;;;19.91;19.47
77897;BME280;67092;64.282;21.056;2023-04-06T08:22:00;102781.61;;;20.28;19.39
77897;BME280;67092;64.282;21.056;2023-04-06T08:24:26;102780.86;;;19.69;19.45
77897;BME280;67092;64.282;21.056;2023-04-06T08:26:52;102780.26;;;19.67;19.48
77897;BME280;67092;64.282;21.056;2023-04-06T08:29:17;102787.04;;;19.61;19.52
77897;BME280;67092;64.282;21.056;2023-04-06T08:31:43;102791.69;;;19.51;19.58
77897;BME280;67092;64.282;21.056;2023-04-06T08:34:08;102787.73;;;19.70;19.61
77897;BME280;67092;64.282;21.056;2023-04-06T08:36:34;102782.59;;;19.31;19.71
77897;BME280;67092;64.282;21.056;2023-04-06T08:39:00;102791.06;;;19.41;19.66
77897;BME280;67092;64.282;21.056;2023-04-06T08:41:26;102792.99;;;19.38;19.69
77897;BME280;67092;64.282;21.056;2023-04-06T08:43:54;102776.35;;;19.42;19.66
77897;BME280;67092;64.282;21.056;2023-04-06T08:46:18;102781.91;;;19.78;19.72
77897;BME280;67092;64.282;21.056;2023-04-06T08:48:43;102780.62;;;19.69;19.78
77897;BME280;67092;64.282;21.056;2023-04-06T08:51:08;102778.85;;;19.22;19.80
77897;BME280;67092;64.282;21.056;2023-04-06T08:53:34;102784.12;;;19.21;19.78
77897;BME280;67092;64.282;21.056;2023-04-06T08:55:59;102779.15;;;19.99;19.55
77897;BME280;67092;64.282;21.056;2023-04-06T08:58:26;102776.47;;;19.57;19.86
77897;BME280;67092;64.282;21.056;2023-04-06T09:00:51;102777.90;;;18.89;20.02
77897;BME280;67092;64.282;21.056;2023-04-06T09:03:17;102773.73;;;19.86;19.65
77897;BME280;67092;64.282;21.056;2023-04-06T09:05:43;102766.99;;;19.63;19.61
77897;BME280;67092;64.282;21.056;2023-04-06T09:08:08;102768.94;;;19.39;19.60
77897;BME280;67092;64.282;21.056;2023-04-06T09:10:34;102768.48;;;19.16;19.97
77897;BME280;67092;64.282;21.056;2023-04-06T09:13:05;102772.11;;;19.46;19.72
77897;BME280;67092;64.282;21.056;2023-04-06T09:15:24;102774.90;;;19.34;19.80
77897;BME280;67092;64.282;21.056;2023-04-06T09:17:50;102778.77;;;19.72;19.52
77897;BME280;67092;64.282;21.056;2023-04-06T09:20:22;102778.47;;;19.75;19.70
77897;BME280;67092;64.282;21.056;2023-04-06T09:22:42;102772.27;;;19.45;19.75
77897;BME280;67092;64.282;21.056;2023-04-06T09:25:09;102771.57;;;19.34;19.61
77897;BME280;67092;64.282;21.056;2023-04-06T09:27:34;102773.19;;;19.79;19.44
77897;BME280;67092;64.282;21.056;2023-04-06T09:30:04;102773.23;;;19.71;19.69
77897;BME280;67092;64.282;21.056;2023-04-06T09:32:24;102769.89;;;19.73;19.68
77897;BME280;67092;64.282;21.056;2023-04-06T09:34:50;102762.80;;;19.53;19.85
77897;BME280;67092;64.282;21.056;2023-04-06T09:37:16;102760.30;;;19.64;19.73
77897;BME280;67092;64.282;21.056;2023-04-06T09:39:41;102763.81;;;19.71;19.68
77897;BME280;67092;64.282;21.056;2023-04-06T09:42:07;102767.42;;;19.65;19.72
77897;BME280;67092;64.282;21.056;2023-04-06T09:44:32;102766.00;;;19.59;19.58
77897;BME280;67092;64.282;21.056;2023-04-06T09:46:58;102766.90;;;19.48;19.84
77897;BME280;67092;64.282;21.056;2023-04-06T09:49:24;102760.57;;;19.73;19.65
77897;BME280;67092;64.282;21.056;2023-04-06T09:51:54;102761.66;;;19.50;19.62
77897;BME280;67092;64.282;21.056;2023-04-06T09:54:19;102760.48;;;19.89;19.49
77897;BME280;67092;64.282;21.056;2023-04-06T09:56:45;102762.24;;;19.45;19.65
77897;BME280;67092;64.282;21.056;2023-04-06T09:59:11;102761.30;;;20.05;19.37
77897;BME280;67092;64.282;21.056;2023-04-06T10:01:33;102762.08;;;19.61;19.52
77897;BME280;67092;64.282;21.056;2023-04-06T10:04:05;102761.95;;;19.57;19.38
77897;BME280;67092;64.282;21.056;2023-04-06T10:06:24;102768.97;;;19.50;19.60
77897;BME280;67092;64.282;21.056;2023-04-06T10:08:50;102772.48;;;19.31;19.74
77897;BME280;67092;64.282;21.056;2023-04-06T10:11:15;102779.54;;;19.42;19.50
77897;BME280;67092;64.282;21.056;2023-04-06T10:13:40;102777.50;;;19.48;19.82
77897;BME280;67092;64.282;21.056;2023-04-06T10:16:06;102775.31;;;19.77;19.60
77897;BME280;67092;64.282;21.056;2023-04-06T10:18:31;102777.67;;;19.37;19.53
77897;BME280;67092;64.282;21.056;2023-04-06T10:21:01;102778.91;;;19.56;19.55
77897;BME280;67092;64.282;21.056;2023-04-06T10:23:32;102774.52;;;19.52;19.77
77897;BME280;67092;64.282;21.056;2023-04-06T10:25:54;102771.49;;;19.30;19.76
77897;BME280;67092;64.282;21.056;2023-04-06T10:28:14;102768.79;;;19.95;19.44
77897;BME280;67092;64.282;21.056;2023-04-06T10:30:42;102769.21;;;19.32;19.73
77897;BME280;67092;64.282;21.056;2023-04-06T10:33:13;102772.06;;;19.24;19.59
77897;BME280;67092;64.282;21.056;2023-04-06T10:35:37;102773.33;;;19.87;19.51
77897;BME280;67092;64.282;21.056;2023-04-06T10:38:02;102772.30;;;19.53;19.71
77897;BME280;67092;64.282;21.056;2023-04-06T10:40:23;102772.93;;;19.01;19.76
77897;BME280;67092;64.282;21.056;2023-04-06T10:42:48;102773.23;;;19.35;19.67
77897;BME280;67092;64.282;21.056;2023-04-06T10:45:20;102779.87;;;19.24;19.78
77897;BME280;67092;64.282;21.056;2023-04-06T10:47:40;102783.95;;;19.20;19.78
77897;BME280;67092;64.282;21.056;2023-04-06T10:50:06;102781.19;;;19.32;19.70
77897;BME280;67092;64.282;21.056;2023-04-06T10:52:30;102781.65;;;19.55;19.50
77897;BME280;67092;64.282;21.056;2023-04-06T10:54:56;102781.34;;;19.40;19.79
77897;BME280;67092;64.282;21.056;2023-04-06T10:57:27;102783.58;;;18.95;19.80
77897;BME280;67092;64.282;21.056;2023-04-06T10:59:47;102780.67;;;19.49;19.53
77897;BME280;67092;64.282;21.056;2023-04-06T11:02:19;102784.96;;;19.01;19.91
77897;BME280;67092;64.282;21.056;2023-04-06T11:04:39;102777.91;;;19.57;19.48
77897;BME280;67092;64.282;21.056;2023-04-06T11:07:04;102774.78;;;19.27;19.69
77897;BME280;67092;64.282;21.056;2023-04-06T11:09:30;102773.87;;;19.64;19.56
77897;BME280;67092;64.282;21.056;2023-04-06T11:11:56;102781.96;;;19.23;19.70
77897;BME280;67092;64.282;21.056;2023-04-06T11:14:21;102783.18;;;19.54;19.67
77897;BME280;67092;64.282;21.056;2023-04-06T11:16:48;102787.54;;;19.27;19.87
77897;BME280;67092;64.282;21.056;2023-04-06T11:19:12;102785.23;;;19.15;19.78
77897;BME280;67092;64.282;21.056;2023-04-06T11:21:39;102778.30;;;19.43;19.53
77897;BME280;67092;64.282;21.056;2023-04-06T11:24:05;102781.36;;;19.20;19.92
77897;BME280;67092;64.282;21.056;2023-04-06T11:26:29;102782.34;;;19.31;19.84
77897;BME280;67092;64.282;21.056;2023-04-06T11:28:55;102778.81;;;19.58;19.62
77897;BME280;67092;64.282;21.056;2023-04-06T11:31:25;102778.15;;;19.45;19.72
77897;BME280;67092;64.282;21.056;2023-04-06T11:33:46;102779.62;;;18.89;19.94
77897;BME280;67092;64.282;21.056;2023-04-06T11:36:13;102776.86;;;19.38;19.74
77897;BME280;67092;64.282;21.056;2023-04-06T11:38:39;102771.85;;;19.13;19.75
77897;BME280;67092;64.282;21.056;2023-04-06T11:41:03;102771.24;;;19.17;19.92
77897;BME280;67092;64.282;21.056;2023-04-06T11:43:29;102769.29;;;19.58;19.58
77897;BME280;67092;64.282;21.056;2023-04-06T11:45:59;102772.17;;;19.02;19.83
77897;BME280;67092;64.282;21.056;2023-04-06T11:48:20;102766.19;;;19.33;19.75
77897;BME280;67092;64.282;21.056;2023-04-06T11:50:47;102764.27;;;19.16;19.90
77897;BME280;67092;64.282;21.056;2023-04-06T11:53:11;102765.71;;;18.61;19.94
77897;BME280;67092;64.282;21.056;2023-04-06T11:55:38;102769.08;;;19.10;19.94
77897;BME280;67092;64.282;21.056;2023-04-06T11:58:03;102766.42;;;19.39;19.69
77897;BME280;67092;64.282;21.056;2023-04-06T12:00:28;102765.75;;;19.51;19.60
77897;BME280;67092;64.282;21.056;2023-04-06T12:02:54;102772.45;;;19.10;19.73
77897;BME280;67092;64.282;21.056;2023-04-06T12:05:19;102770.33;;;19.08;19.93
77897;BME280;67092;64.282;21.056;2023-04-06T12:07:45;102766.97;;;18.97;20.04
77897;BME280;67092;64.282;21.056;2023-04-06T12:10:11;102764.02;;;18.78;19.99
77897;BME280;67092;64.282;21.056;2023-04-06T12:12:36;102761.30;;;19.16;19.70
77897;BME280;67092;64.282;21.056;2023-04-06T12:15:03;102763.69;;;19.04;19.75
77897;BME280;67092;64.282;21.056;2023-04-06T12:17:28;102764.14;;;19.25;19.79
77897;BME280;67092;64.282;21.056;2023-04-06T12:19:53;102760.58;;;19.52;19.56
77897;BME280;67092;64.282;21.056;2023-04-06T12:22:19;102757.35;;;19.38;19.46
77897;BME280;67092;64.282;21.056;2023-04-06T12:24:45;102756.96;;;19.36;19.48
77897;BME280;67092;64.282;21.056;2023-04-06T12:27:10;102756.23;;;19.11;19.50
77897;BME280;67092;64.282;21.056;2023-04-06T12:29:36;102753.99;;;19.60;19.50
77897;BME280;67092;64.282;21.056;2023-04-06T12:32:02;102754.08;;;19.44;19.43